createdAt,value
2022-10-06T00:01:48.678Z,17.17
2022-10-06T00:06:51.075Z,17.14
2022-10-06T00:11:52.912Z,17.12
2022-10-06T00:16:54.976Z,17.11
2022-10-06T00:21:57.021Z,17.09
2022-10-06T00:26:59.075Z,17.08
2022-10-06T00:32:00.923Z,17.06
2022-10-06T00:37:03.447Z,17.07
2022-10-06T00:42:05.368Z,17.06
2022-10-06T00:47:08.203Z,17.06
2022-10-06T00:52:14.805Z,17.04
2022-10-06T00:57:17.848Z,17.03
2022-10-06T01:02:28.809Z,17.02
2022-10-06T01:07:31.047Z,17.00
2022-10-06T01:12:34.618Z,16.97
2022-10-06T01:17:40.030Z,16.93
2022-10-06T01:22:45.088Z,16.87
2022-10-06T01:27:53.668Z,16.84
2022-10-06T01:32:58.952Z,16.82
2022-10-06T01:38:01.572Z,16.78
2022-10-06T01:43:05.256Z,16.75
2022-10-06T01:48:07.295Z,16.72
2022-10-06T01:53:09.282Z,16.71
2022-10-06T01:58:12.242Z,16.69
2022-10-06T02:03:15.193Z,16.65
2022-10-06T02:08:17.237Z,16.61
2022-10-06T02:13:19.235Z,16.59
2022-10-06T02:18:22.456Z,16.58
2022-10-06T02:23:24.334Z,16.59
2022-10-06T02:28:26.917Z,16.56
2022-10-06T02:33:30.514Z,16.57
2022-10-06T02:38:33.722Z,16.57
2022-10-06T02:43:37.701Z,16.55
2022-10-06T02:48:41.213Z,16.53
2022-10-06T02:53:44.802Z,16.53
2022-10-06T02:58:48.202Z,16.53
2022-10-06T03:03:57.011Z,16.55
2022-10-06T03:08:58.942Z,16.56
2022-10-06T03:14:01.804Z,16.56
2022-10-06T03:19:06.123Z,16.56
2022-10-06T03:24:08.546Z,16.55
2022-10-06T03:29:12.686Z,16.52
2022-10-06T03:34:18.726Z,16.52
2022-10-06T03:39:21.048Z,16.51
2022-10-06T03:44:24.616Z,16.50
2022-10-06T03:49:27.294Z,16.49
2022-10-06T03:54:29.334Z,16.45
2022-10-06T03:59:34.331Z,16.42
2022-10-06T04:04:38.622Z,16.40
2022-10-06T04:09:46.152Z,16.39
2022-10-06T04:14:48.395Z,16.38
2022-10-06T04:19:50.324Z,16.37
2022-10-06T04:24:52.616Z,16.34
2022-10-06T04:29:54.515Z,16.33
2022-10-06T04:34:56.545Z,16.30
2022-10-06T04:40:00.374Z,16.30
2022-10-06T04:45:05.277Z,16.29
2022-10-06T04:50:08.728Z,16.31
2022-10-06T04:55:11.230Z,16.31
2022-10-06T05:00:25.768Z,16.32
2022-10-06T05:05:29.080Z,16.40
2022-10-06T05:10:32.037Z,16.45
2022-10-06T05:15:34.610Z,16.51
2022-10-06T05:20:36.823Z,16.57
2022-10-06T05:25:39.436Z,16.62
2022-10-06T05:30:41.416Z,16.67
2022-10-06T05:35:55.735Z,16.71
2022-10-06T05:41:17.628Z,16.75
2022-10-06T05:46:24.951Z,16.77
2022-10-06T05:51:32.066Z,16.81
2022-10-06T05:56:37.971Z,16.88
2022-10-06T06:01:41.657Z,16.87
2022-10-06T06:07:01.373Z,16.88
2022-10-06T06:12:03.700Z,16.89
2022-10-06T06:17:12.341Z,16.90
2022-10-06T06:22:14.512Z,16.91
2022-10-06T06:27:18.826Z,16.91
2022-10-06T06:32:20.792Z,16.91
2022-10-06T06:37:23.710Z,16.92
2022-10-06T06:42:25.710Z,16.89
2022-10-06T06:47:35.286Z,16.62
2022-10-06T06:52:39.661Z,16.30
2022-10-06T06:57:46.924Z,15.98
2022-10-06T07:02:56.374Z,15.76
2022-10-06T07:07:58.388Z,15.61
2022-10-06T07:13:01.195Z,15.47
2022-10-06T07:18:21.956Z,15.34
2022-10-06T07:23:43.238Z,15.25
2022-10-06T07:28:49.926Z,15.17
2022-10-06T07:33:53.793Z,15.10
2022-10-06T07:38:56.293Z,14.98
2022-10-06T07:43:59.371Z,14.86
2022-10-06T07:49:04.354Z,14.82
2022-10-06T07:54:07.039Z,14.82
2022-10-06T07:59:29.097Z,14.87
2022-10-06T08:04:30.959Z,14.88
2022-10-06T08:09:32.763Z,14.88
2022-10-06T08:14:35.510Z,14.88
2022-10-06T08:19:37.492Z,14.92
2022-10-06T08:25:04.224Z,15.01
2022-10-06T08:30:01.284Z,15.09
2022-10-06T08:35:03.991Z,15.13
2022-10-06T08:40:08.151Z,15.21
2022-10-06T08:45:32.089Z,15.27
2022-10-06T08:50:50.624Z,15.31
2022-10-06T08:56:01.175Z,15.36
2022-10-06T09:01:16.309Z,15.41
2022-10-06T09:06:49.016Z,15.43
2022-10-06T09:12:29.446Z,15.52
2022-10-06T09:17:40.503Z,15.60
2022-10-06T09:22:44.833Z,15.66
2022-10-06T09:27:53.417Z,15.75
2022-10-06T09:33:00.317Z,15.83
2022-10-06T09:38:08.696Z,15.88
2022-10-06T09:43:28.171Z,15.94
2022-10-06T09:48:29.976Z,15.97
2022-10-06T09:53:35.526Z,15.95
2022-10-06T09:58:52.727Z,15.98
2022-10-06T10:04:21.127Z,16.09
2022-10-06T10:09:29.387Z,16.21
2022-10-06T10:14:38.724Z,16.29
2022-10-06T10:19:43.576Z,16.31
2022-10-06T10:25:36.069Z,16.26
2022-10-06T10:30:55.830Z,16.24
2022-10-06T10:35:59.457Z,16.32
2022-10-06T10:41:20.160Z,16.44
2022-10-06T10:46:33.031Z,16.37
2022-10-06T10:51:37.523Z,16.41
2022-10-06T10:56:39.663Z,16.45
2022-10-06T11:01:53.573Z,16.56
2022-10-06T11:07:07.973Z,16.78
2022-10-06T11:12:56.096Z,16.81
2022-10-06T11:18:21.411Z,16.77
2022-10-06T11:23:24.222Z,16.87
2022-10-06T11:29:02.600Z,17.00
2022-10-06T11:34:06.687Z,17.15
2022-10-06T11:39:24.146Z,17.29
2022-10-06T11:44:39.141Z,17.34
2022-10-06T11:49:55.903Z,17.37
2022-10-06T11:55:15.118Z,17.41
2022-10-06T12:00:17.412Z,17.37
2022-10-06T12:10:50.284Z,17.35
2022-10-06T12:21:32.459Z,17.38
2022-10-06T12:26:43.349Z,17.33
2022-10-06T12:31:51.233Z,17.30
2022-10-06T12:37:19.928Z,17.25
2022-10-06T12:42:27.623Z,17.22
2022-10-06T12:47:40.772Z,17.21
2022-10-06T12:52:49.018Z,17.13
2022-10-06T12:57:52.422Z,17.10
2022-10-06T13:02:57.840Z,17.10
2022-10-06T13:08:20.821Z,17.10
2022-10-06T13:13:25.120Z,17.08
2022-10-06T13:18:28.754Z,17.09
2022-10-06T13:23:36.637Z,17.03
2022-10-06T13:28:44.298Z,16.90
2022-10-06T13:33:47.463Z,16.91
2022-10-06T13:38:50.468Z,16.87
2022-10-06T13:44:14.228Z,16.89
2022-10-06T13:49:30.682Z,16.90
2022-10-06T13:54:32.537Z,16.91
2022-10-06T13:59:38.692Z,16.95
2022-10-06T14:04:40.679Z,16.97
2022-10-06T14:09:43.248Z,16.99
2022-10-06T14:14:48.012Z,16.97
2022-10-06T14:19:50.178Z,16.94
2022-10-06T14:24:52.083Z,16.94
2022-10-06T14:29:55.767Z,16.93
2022-10-06T14:34:57.786Z,16.93
2022-10-06T14:40:00.027Z,16.93
2022-10-06T14:45:02.977Z,16.92
2022-10-06T14:50:05.663Z,16.91
2022-10-06T14:55:08.314Z,16.89
2022-10-06T15:00:10.803Z,16.84
2022-10-06T15:05:13.839Z,16.79
2022-10-06T15:10:15.635Z,16.72
2022-10-06T15:15:17.399Z,16.67
2022-10-06T15:20:19.164Z,16.63
2022-10-06T15:25:39.501Z,16.59
2022-10-06T15:30:41.809Z,16.53
2022-10-06T15:36:24.489Z,16.51
2022-10-06T15:41:26.768Z,16.43
2022-10-06T15:46:35.831Z,16.37
2022-10-06T15:51:45.006Z,16.30
2022-10-06T15:56:48.554Z,16.21
2022-10-06T16:02:03.401Z,16.09
2022-10-06T16:07:10.958Z,15.97
2022-10-06T16:12:18.205Z,15.84
2022-10-06T16:17:20.675Z,15.72
2022-10-06T16:22:22.626Z,15.61
2022-10-06T16:27:24.578Z,15.51
2022-10-06T16:32:26.518Z,15.42
2022-10-06T16:37:28.383Z,15.32
2022-10-06T16:42:30.383Z,15.21
2022-10-06T16:47:32.271Z,15.09
2022-10-06T16:52:34.464Z,14.99
2022-10-06T16:57:36.327Z,14.91
2022-10-06T17:02:38.773Z,14.80
2022-10-06T17:07:40.938Z,14.71
2022-10-06T17:12:42.952Z,14.64
2022-10-06T17:17:45.002Z,14.60
2022-10-06T17:22:47.008Z,14.55
2022-10-06T17:27:48.931Z,14.48
2022-10-06T17:32:50.798Z,14.43
2022-10-06T17:37:54.202Z,14.40
2022-10-06T17:42:57.795Z,14.35
2022-10-06T17:48:00.099Z,14.30
2022-10-06T17:53:02.043Z,14.26
2022-10-06T17:58:04.737Z,14.23
2022-10-06T18:03:07.751Z,14.16
2022-10-06T18:08:13.021Z,14.10
2022-10-06T18:13:15.186Z,14.07
2022-10-06T18:18:16.969Z,14.03
2022-10-06T18:23:18.863Z,13.97
2022-10-06T18:28:20.712Z,13.89
2022-10-06T18:38:45.862Z,13.75
2022-10-06T18:43:48.228Z,13.69
2022-10-06T18:48:56.423Z,13.66
2022-10-06T18:54:03.266Z,13.50
2022-10-06T18:59:12.386Z,13.42
2022-10-06T19:04:17.197Z,13.38
2022-10-06T19:09:21.813Z,13.37
2022-10-06T19:14:30.024Z,13.34
2022-10-06T19:19:31.927Z,13.32
2022-10-06T19:24:39.255Z,13.28
2022-10-06T19:29:45.930Z,13.24
2022-10-06T19:34:49.985Z,13.21
2022-10-06T19:39:51.754Z,13.19
2022-10-06T19:44:53.513Z,13.16
2022-10-06T19:50:00.822Z,13.15
2022-10-06T19:55:05.337Z,13.15
2022-10-06T20:00:10.440Z,13.13
2022-10-06T20:05:16.000Z,13.12
2022-10-06T20:10:17.921Z,13.04
2022-10-06T20:15:19.932Z,12.97
2022-10-06T20:20:21.772Z,12.94
2022-10-06T20:25:23.889Z,12.90
2022-10-06T20:30:25.676Z,12.87
2022-10-06T20:35:27.543Z,12.84
2022-10-06T20:40:43.411Z,12.81
2022-10-06T20:45:45.193Z,12.80
2022-10-06T20:50:47.022Z,12.77
2022-10-06T20:55:52.170Z,12.75
2022-10-06T21:00:54.069Z,12.75
2022-10-06T21:05:55.901Z,12.72
2022-10-06T21:11:02.574Z,12.67
2022-10-06T21:16:04.754Z,12.65
2022-10-06T21:21:08.017Z,12.64
2022-10-06T21:26:12.858Z,12.63
2022-10-06T21:31:20.060Z,12.60
2022-10-06T21:36:24.395Z,12.55
2022-10-06T21:41:31.904Z,12.51
2022-10-06T21:46:36.669Z,12.47
2022-10-06T21:51:39.561Z,12.43
2022-10-06T21:56:41.756Z,12.37
2022-10-06T22:01:45.582Z,12.32
2022-10-06T22:06:50.280Z,12.28
2022-10-06T22:11:52.423Z,12.25
2022-10-06T22:16:54.333Z,12.23
2022-10-06T22:21:56.173Z,12.18
2022-10-06T22:26:58.969Z,12.14
2022-10-06T22:32:00.811Z,12.10
2022-10-06T22:37:02.723Z,12.05
2022-10-06T22:42:04.628Z,12.02
2022-10-06T22:47:06.562Z,11.99
2022-10-06T22:52:08.660Z,11.96
2022-10-06T22:57:10.520Z,11.94
2022-10-06T23:02:12.259Z,11.93
2022-10-06T23:07:14.021Z,11.90
2022-10-06T23:12:15.821Z,11.89
2022-10-06T23:17:17.651Z,11.86
2022-10-06T23:22:19.478Z,11.84
2022-10-06T23:27:21.421Z,11.85
2022-10-06T23:32:23.334Z,11.85
2022-10-06T23:37:25.160Z,11.82
2022-10-06T23:42:27.163Z,11.81
2022-10-06T23:47:29.156Z,11.79
2022-10-06T23:52:30.974Z,11.78
2022-10-06T23:57:32.739Z,11.73
